createdAt,value
2018-11-22T00:00:27.780Z,0
2018-11-22T00:01:27.780Z,0
2018-11-22T00:02:27.520Z,0
2018-11-22T00:03:27.815Z,0
2018-11-22T00:04:27.774Z,0
2018-11-22T00:05:27.765Z,0
2018-11-22T00:06:27.514Z,0
2018-11-22T00:07:27.253Z,0
2018-11-22T00:08:28.009Z,4
2018-11-22T00:09:27.750Z,4
2018-11-22T00:10:27.755Z,4
2018-11-22T00:11:27.744Z,4
2018-11-22T00:12:27.737Z,0
2018-11-22T00:13:27.543Z,0
2018-11-22T00:14:27.490Z,4
2018-11-22T00:15:27.742Z,4
2018-11-22T00:16:27.733Z,0
2018-11-22T00:17:27.731Z,0
2018-11-22T00:18:27.777Z,0
2018-11-22T00:19:27.726Z,0
2018-11-22T00:20:27.723Z,0
2018-11-22T00:21:27.463Z,0
2018-11-22T00:22:27.460Z,0
2018-11-22T00:23:27.723Z,0
2018-11-22T00:24:27.454Z,0
2018-11-22T00:25:27.705Z,0
2018-11-22T00:26:27.704Z,0
2018-11-22T00:27:27.452Z,0
2018-11-22T00:28:27.688Z,0
2018-11-22T00:29:27.691Z,0
2018-11-22T00:30:27.695Z,0
2018-11-22T00:31:27.730Z,0
2018-11-22T00:32:27.432Z,0
2018-11-22T00:33:27.727Z,0
2018-11-22T00:34:42.344Z,0
2018-11-22T00:35:27.669Z,0
2018-11-22T00:36:27.658Z,0
2018-11-22T00:37:27.665Z,0
2018-11-22T00:38:27.681Z,0
2018-11-22T00:39:27.664Z,0
2018-11-22T00:40:27.655Z,0
2018-11-22T00:41:27.655Z,0
2018-11-22T00:42:27.656Z,0
2018-11-22T00:43:34.586Z,0
2018-11-22T01:15:21.315Z,0
2018-11-22T01:16:21.416Z,0
2018-11-22T01:17:21.410Z,0
2018-11-22T01:18:21.414Z,0
2018-11-22T01:19:21.404Z,0
2018-11-22T01:20:21.411Z,0
2018-11-22T01:21:21.418Z,0
2018-11-22T01:22:21.440Z,0
2018-11-22T01:23:21.390Z,0
2018-11-22T01:24:21.389Z,0
2018-11-22T01:25:21.392Z,0
2018-11-22T01:26:21.389Z,0
2018-11-22T01:27:21.386Z,0
2018-11-22T01:28:21.376Z,0
2018-11-22T01:29:21.374Z,0
2018-11-22T01:30:21.526Z,0
2018-11-22T01:31:21.368Z,0
2018-11-22T01:32:21.366Z,0
2018-11-22T01:33:21.109Z,0
2018-11-22T01:34:21.357Z,0
2018-11-22T01:35:21.365Z,0
2018-11-22T01:36:21.352Z,0
2018-11-22T01:37:21.356Z,0
2018-11-22T01:38:21.343Z,0
2018-11-22T01:39:21.343Z,0
2018-11-22T01:40:21.338Z,0
2018-11-22T01:41:21.338Z,0
2018-11-22T01:42:21.330Z,0
2018-11-22T01:43:21.332Z,0
2018-11-22T01:44:21.128Z,0
2018-11-22T01:45:21.432Z,0
2018-11-22T01:46:21.325Z,0
2018-11-22T01:47:21.369Z,0
2018-11-22T01:48:21.327Z,0
2018-11-22T01:49:21.324Z,0
2018-11-22T01:50:21.335Z,0
2018-11-22T01:51:21.309Z,0
2018-11-22T01:52:21.305Z,0
2018-11-22T01:53:21.306Z,0
2018-11-22T01:54:21.306Z,0
2018-11-22T01:55:21.305Z,0
2018-11-22T01:56:21.299Z,0
2018-11-22T01:57:21.045Z,0
2018-11-22T01:58:21.289Z,0
2018-11-22T01:59:21.286Z,0
2018-11-22T02:00:21.382Z,0
2018-11-22T02:01:21.316Z,0
2018-11-22T02:02:21.277Z,0
2018-11-22T02:03:21.278Z,0
2018-11-22T02:04:21.271Z,0
2018-11-22T02:05:21.320Z,0
2018-11-22T02:06:21.269Z,0
2018-11-22T02:07:21.036Z,0
2018-11-22T02:08:21.262Z,0
2018-11-22T02:09:21.264Z,0
2018-11-22T02:10:21.263Z,0
2018-11-22T02:11:21.257Z,0
2018-11-22T02:12:21.261Z,0
2018-11-22T02:13:21.245Z,0
2018-11-22T02:14:21.243Z,0
2018-11-22T02:15:21.344Z,0
2018-11-22T02:16:21.241Z,0
2018-11-22T02:17:21.232Z,0
2018-11-22T02:18:21.241Z,0
2018-11-22T02:19:21.231Z,0
2018-11-22T02:20:21.226Z,0
2018-11-22T02:21:21.228Z,0
2018-11-22T02:22:21.223Z,0
2018-11-22T02:23:21.222Z,0
2018-11-22T02:24:20.972Z,0
2018-11-22T02:25:21.218Z,0
2018-11-22T02:26:21.215Z,0
2018-11-22T02:27:21.212Z,0
2018-11-22T02:28:21.204Z,0
2018-11-22T02:29:21.202Z,0
2018-11-22T02:30:21.303Z,0
2018-11-22T02:31:20.693Z,0
2018-11-22T02:32:21.258Z,0
2018-11-22T02:33:21.194Z,0
2018-11-22T02:34:21.188Z,0
2018-11-22T02:35:21.287Z,0
2018-11-22T02:36:21.186Z,0
2018-11-22T02:37:21.175Z,0
2018-11-22T02:38:21.200Z,0
2018-11-22T02:39:21.181Z,0
2018-11-22T02:40:21.183Z,0
2018-11-22T02:41:21.166Z,0
2018-11-22T02:42:21.159Z,0
2018-11-22T02:43:21.176Z,0
2018-11-22T02:44:21.166Z,0
2018-11-22T02:45:21.154Z,0
2018-11-22T02:46:21.162Z,0
2018-11-22T02:47:20.919Z,0
2018-11-22T02:48:21.173Z,0
2018-11-22T02:49:21.145Z,0
2018-11-22T02:50:21.250Z,0
2018-11-22T02:51:21.138Z,0
2018-11-22T02:52:20.888Z,0
2018-11-22T02:53:21.135Z,0
2018-11-22T02:54:21.124Z,0
2018-11-22T02:55:21.127Z,0
2018-11-22T02:56:21.118Z,0
2018-11-22T02:57:21.124Z,0
2018-11-22T02:58:21.120Z,0
2018-11-22T02:59:21.142Z,0
2018-11-22T03:00:21.108Z,0
2018-11-22T03:01:21.108Z,0
2018-11-22T03:02:20.853Z,0
2018-11-22T03:03:21.103Z,0
2018-11-22T03:04:21.099Z,0
2018-11-22T03:05:20.940Z,0
2018-11-22T03:06:21.108Z,0
2018-11-22T03:07:21.089Z,0
2018-11-22T03:08:21.094Z,0
2018-11-22T03:09:20.835Z,0
2018-11-22T03:10:20.833Z,0
2018-11-22T03:11:21.058Z,0
2018-11-22T03:12:21.062Z,0
2018-11-22T03:13:21.058Z,0
2018-11-22T03:14:21.047Z,0
2018-11-22T03:15:21.048Z,0
2018-11-22T03:16:21.041Z,0
2018-11-22T03:17:21.069Z,0
2018-11-22T03:18:21.064Z,0
2018-11-22T03:19:20.800Z,0
2018-11-22T03:20:21.147Z,0
2018-11-22T03:21:21.050Z,0
2018-11-22T03:22:21.042Z,0
2018-11-22T03:23:21.044Z,0
2018-11-22T03:24:21.049Z,0
2018-11-22T03:25:21.039Z,0
2018-11-22T03:26:20.778Z,0
2018-11-22T03:27:21.029Z,0
2018-11-22T03:28:21.025Z,0
2018-11-22T03:29:20.777Z,0
2018-11-22T03:30:20.568Z,0
2018-11-22T03:31:21.020Z,0
2018-11-22T03:32:21.016Z,0
2018-11-22T03:33:21.041Z,0
2018-11-22T03:34:21.017Z,0
2018-11-22T03:35:21.121Z,0
2018-11-22T03:36:20.778Z,0
2018-11-22T03:37:21.009Z,0
2018-11-22T03:38:21.003Z,0
2018-11-22T03:39:21.005Z,0
2018-11-22T03:40:20.494Z,0
2018-11-22T03:41:20.994Z,0
2018-11-22T03:42:20.747Z,0
2018-11-22T03:43:20.733Z,0
2018-11-22T03:44:20.735Z,0
2018-11-22T03:45:20.980Z,0
2018-11-22T03:46:20.989Z,0
2018-11-22T03:47:20.972Z,0
2018-11-22T03:48:20.975Z,0
2018-11-22T03:49:20.975Z,0
2018-11-22T03:50:20.774Z,0
2018-11-22T03:51:20.724Z,0
2018-11-22T03:52:20.715Z,0
2018-11-22T03:53:20.960Z,0
2018-11-22T03:54:20.960Z,0
2018-11-22T03:55:21.262Z,0
2018-11-22T03:56:20.961Z,0
2018-11-22T03:57:20.977Z,0
2018-11-22T03:58:20.956Z,0
2018-11-22T03:59:20.942Z,0
2018-11-22T04:00:20.956Z,0
2018-11-22T04:01:20.937Z,0
2018-11-22T04:02:20.934Z,0
2018-11-22T04:03:20.701Z,0
2018-11-22T04:04:20.950Z,0
2018-11-22T04:05:20.978Z,0
2018-11-22T04:06:20.926Z,0
2018-11-22T04:07:20.925Z,0
2018-11-22T04:08:20.663Z,0
2018-11-22T04:09:20.902Z,0
2018-11-22T04:10:20.908Z,0
2018-11-22T04:11:20.889Z,0
2018-11-22T04:12:20.630Z,0
2018-11-22T04:13:20.893Z,0
2018-11-22T04:14:20.910Z,0
2018-11-22T04:15:20.894Z,0
2018-11-22T04:16:20.366Z,0
2018-11-22T04:17:20.872Z,0
2018-11-22T04:18:20.874Z,0
2018-11-22T04:19:20.616Z,0
2018-11-22T04:20:20.908Z,0
2018-11-22T04:21:20.858Z,0
2018-11-22T04:22:20.884Z,0
2018-11-22T04:23:20.883Z,0
2018-11-22T04:24:20.877Z,0
2018-11-22T04:25:21.011Z,0
2018-11-22T04:26:26.531Z,0
2018-11-22T04:27:20.903Z,0
2018-11-22T04:28:20.865Z,0
2018-11-22T04:29:20.866Z,0
2018-11-22T04:30:20.865Z,0
2018-11-22T04:31:20.607Z,0
2018-11-22T04:32:20.860Z,0
2018-11-22T04:33:20.852Z,0
2018-11-22T04:34:20.867Z,0
2018-11-22T04:35:20.901Z,0
2018-11-22T04:36:20.866Z,0
2018-11-22T04:37:20.840Z,0
2018-11-22T04:38:20.852Z,0
2018-11-22T04:39:20.836Z,0
2018-11-22T04:40:20.587Z,0
2018-11-22T04:41:20.843Z,0
2018-11-22T04:42:20.835Z,0
2018-11-22T04:43:20.827Z,0
2018-11-22T04:44:20.842Z,0
2018-11-22T04:45:20.670Z,0
2018-11-22T04:46:20.562Z,0
2018-11-22T04:47:20.814Z,0
2018-11-22T04:48:20.814Z,0
2018-11-22T04:49:20.557Z,0
2018-11-22T04:50:20.858Z,0
2018-11-22T04:51:20.553Z,0
2018-11-22T04:52:20.798Z,0
2018-11-22T04:53:20.849Z,0
2018-11-22T04:54:20.790Z,0
2018-11-22T04:55:20.885Z,0
2018-11-22T04:56:20.790Z,0
2018-11-22T04:57:20.778Z,0
2018-11-22T04:58:20.528Z,0
2018-11-22T04:59:20.848Z,0
2018-11-22T05:00:20.833Z,0
2018-11-22T05:01:20.531Z,0
2018-11-22T05:02:20.526Z,0
2018-11-22T05:03:20.770Z,0
2018-11-22T05:04:20.527Z,0
2018-11-22T05:05:20.826Z,0
2018-11-22T05:06:20.748Z,0
2018-11-22T05:07:20.774Z,0
2018-11-22T05:08:20.517Z,0
2018-11-22T05:09:20.256Z,0
2018-11-22T05:10:20.758Z,0
2018-11-22T05:11:20.760Z,0
2018-11-22T05:12:20.759Z,0
2018-11-22T05:13:20.744Z,0
2018-11-22T05:14:20.764Z,0
2018-11-22T05:15:20.797Z,0
2018-11-22T05:16:20.751Z,0
2018-11-22T05:17:20.745Z,0
2018-11-22T05:18:20.481Z,0
2018-11-22T05:19:20.733Z,0
2018-11-22T05:20:20.718Z,0
2018-11-22T05:21:20.732Z,0
2018-11-22T05:22:20.732Z,0
2018-11-22T05:23:20.474Z,0
2018-11-22T05:24:20.716Z,0
2018-11-22T05:25:20.769Z,0
2018-11-22T05:26:20.723Z,0
2018-11-22T05:27:20.465Z,0
2018-11-22T05:28:20.711Z,0
2018-11-22T05:29:20.711Z,0
2018-11-22T05:30:20.755Z,0
2018-11-22T05:31:20.705Z,0
2018-11-22T05:32:20.451Z,0
2018-11-22T05:33:20.695Z,0
2018-11-22T05:34:20.699Z,0
2018-11-22T05:35:20.440Z,0
2018-11-22T05:36:20.436Z,0
2018-11-22T05:37:20.685Z,0
2018-11-22T05:38:20.435Z,0
2018-11-22T05:39:20.683Z,0
2018-11-22T05:40:20.683Z,0
2018-11-22T05:41:20.686Z,0
2018-11-22T05:42:20.671Z,0
2018-11-22T05:43:20.670Z,0
2018-11-22T05:44:20.669Z,0
2018-11-22T05:45:20.722Z,0
2018-11-22T05:46:20.663Z,0
2018-11-22T05:47:20.424Z,0
2018-11-22T05:48:20.669Z,0
2018-11-22T05:49:20.659Z,4
2018-11-22T05:50:20.401Z,0
2018-11-22T05:51:20.651Z,4
2018-11-22T05:52:20.412Z,4
2018-11-22T05:53:20.397Z,4
2018-11-22T05:54:20.651Z,4
2018-11-22T05:55:20.698Z,4
2018-11-22T05:56:20.135Z,4
2018-11-22T05:57:20.639Z,4
2018-11-22T05:58:20.637Z,4
2018-11-22T05:59:20.649Z,4
2018-11-22T06:00:20.687Z,4
2018-11-22T06:01:23.504Z,4
2018-11-22T06:02:20.629Z,0
2018-11-22T06:03:20.622Z,4
2018-11-22T06:04:20.365Z,4
2018-11-22T06:05:20.627Z,4
2018-11-22T06:06:20.361Z,8
2018-11-22T06:07:20.622Z,4
2018-11-22T06:08:20.364Z,8
2018-11-22T06:09:20.616Z,4
2018-11-22T06:10:20.608Z,8
2018-11-22T06:11:20.103Z,8
2018-11-22T06:12:20.354Z,8
2018-11-22T06:13:20.346Z,12
2018-11-22T06:14:20.347Z,12
2018-11-22T06:15:20.648Z,12
2018-11-22T06:16:20.337Z,12
2018-11-22T06:17:20.590Z,12
2018-11-22T06:18:21.246Z,16
2018-11-22T06:19:20.579Z,20
2018-11-22T06:20:20.577Z,20
2018-11-22T06:21:20.581Z,20
2018-11-22T06:22:20.578Z,24
2018-11-22T06:23:20.575Z,28
2018-11-22T06:24:20.567Z,32
2018-11-22T06:25:20.588Z,36
2018-11-22T06:26:20.566Z,36
2018-11-22T06:27:20.569Z,44
2018-11-22T06:28:20.560Z,44
2018-11-22T06:29:20.546Z,52
2018-11-22T06:30:20.089Z,60
2018-11-22T06:31:20.543Z,64
2018-11-22T06:32:20.533Z,60
2018-11-22T06:33:20.535Z,68
2018-11-22T06:34:20.539Z,72
2018-11-22T06:35:20.540Z,80
2018-11-22T06:36:20.552Z,88
2018-11-22T06:37:20.279Z,92
2018-11-22T06:38:20.281Z,96
2018-11-22T06:39:20.534Z,108
2018-11-22T06:40:20.537Z,116
2018-11-22T06:41:20.533Z,124
2018-11-22T06:42:20.270Z,124
2018-11-22T06:43:20.523Z,132
2018-11-22T06:44:20.521Z,144
2018-11-22T06:45:20.620Z,152
2018-11-22T06:46:20.512Z,160
2018-11-22T06:47:20.508Z,172
2018-11-22T06:48:20.253Z,188
2018-11-22T06:49:19.995Z,204
2018-11-22T06:50:20.498Z,228
2018-11-22T06:51:20.502Z,248
2018-11-22T06:52:20.241Z,268
2018-11-22T06:53:20.496Z,288
2018-11-22T06:54:20.497Z,312
2018-11-22T06:55:20.536Z,340
2018-11-22T06:56:20.482Z,368
2018-11-22T06:57:20.477Z,396
2018-11-22T06:58:20.223Z,428
2018-11-22T06:59:20.462Z,464
2018-11-22T07:00:20.471Z,488
2018-11-22T07:01:20.464Z,484
2018-11-22T07:02:20.470Z,472
2018-11-22T07:03:20.469Z,472
2018-11-22T07:04:20.467Z,488
2018-11-22T07:05:20.465Z,500
2018-11-22T07:06:20.472Z,512
2018-11-22T07:07:20.455Z,540
2018-11-22T07:08:20.459Z,576
2018-11-22T07:09:20.455Z,612
2018-11-22T07:10:20.555Z,640
2018-11-22T07:11:20.200Z,648
2018-11-22T07:12:20.447Z,668
2018-11-22T07:13:20.441Z,688
2018-11-22T07:14:20.431Z,704
2018-11-22T07:15:20.436Z,736
2018-11-22T07:16:20.436Z,788
2018-11-22T07:17:21.117Z,852
2018-11-22T07:18:20.423Z,952
2018-11-22T07:19:20.436Z,1052
2018-11-22T07:20:20.415Z,1116
2018-11-22T07:21:20.420Z,1164
2018-11-22T07:22:26.052Z,1224
2018-11-22T07:23:20.424Z,1280
2018-11-22T07:24:20.417Z,1328
2018-11-22T07:25:20.515Z,1356
2018-11-22T07:26:20.407Z,1364
2018-11-22T07:27:20.158Z,1364
2018-11-22T07:28:20.426Z,1400
2018-11-22T07:29:20.158Z,1452
2018-11-22T07:30:20.202Z,1488
2018-11-22T07:31:20.392Z,1516
2018-11-22T07:32:20.390Z,1540
2018-11-22T07:33:20.394Z,1568
2018-11-22T07:34:20.395Z,1596
2018-11-22T07:35:20.388Z,1636
2018-11-22T07:36:20.149Z,1672
2018-11-22T07:37:20.381Z,1668
2018-11-22T07:38:20.123Z,1636
2018-11-22T07:39:20.138Z,1616
2018-11-22T07:40:20.168Z,1588
2018-11-22T07:41:20.368Z,1564
2018-11-22T07:42:20.114Z,1524
2018-11-22T07:43:20.362Z,1504
2018-11-22T07:44:20.373Z,1480
2018-11-22T07:45:20.410Z,1528
2018-11-22T07:46:20.109Z,1700
2018-11-22T07:47:20.362Z,1756
2018-11-22T07:48:20.357Z,1740
2018-11-22T07:49:20.345Z,1780
2018-11-22T07:50:20.446Z,1820
2018-11-22T07:51:20.092Z,1812
2018-11-22T07:52:20.339Z,1800
2018-11-22T07:53:20.347Z,1816
2018-11-22T07:54:20.085Z,1836
2018-11-22T07:55:20.083Z,1860
2018-11-22T07:56:20.327Z,1872
2018-11-22T07:57:20.326Z,1892
2018-11-22T07:58:20.328Z,1964
2018-11-22T07:59:20.323Z,2036
2018-11-22T08:00:20.373Z,2120
2018-11-22T08:01:20.336Z,2136
2018-11-22T08:02:20.317Z,2072
2018-11-22T08:03:19.809Z,2012
2018-11-22T08:04:20.056Z,2044
2018-11-22T08:05:20.429Z,2048
2018-11-22T08:06:20.056Z,2040
2018-11-22T08:07:20.346Z,2036
2018-11-22T08:08:20.307Z,2080
2018-11-22T08:09:20.297Z,2148
2018-11-22T08:10:20.297Z,2248
2018-11-22T08:11:20.304Z,2352
2018-11-22T08:12:25.760Z,2444
2018-11-22T08:13:20.288Z,2600
2018-11-22T08:14:20.284Z,2664
2018-11-22T08:15:20.351Z,2516
2018-11-22T08:16:20.031Z,2424
2018-11-22T08:17:20.036Z,2444
2018-11-22T08:18:20.286Z,2548
2018-11-22T08:19:20.279Z,2712
2018-11-22T08:20:20.334Z,2840
2018-11-22T08:21:20.055Z,2764
2018-11-22T08:22:20.015Z,2496
2018-11-22T08:23:20.269Z,2348
2018-11-22T08:24:20.009Z,2288
2018-11-22T08:25:20.016Z,2268
2018-11-22T08:26:20.277Z,2292
2018-11-22T08:27:20.234Z,2456
2018-11-22T08:28:19.981Z,2580
2018-11-22T08:29:20.227Z,2564
2018-11-22T08:30:20.285Z,2516
2018-11-22T08:31:20.225Z,2600
2018-11-22T08:32:20.244Z,2684
2018-11-22T08:33:20.242Z,2736
2018-11-22T08:34:20.250Z,2716
2018-11-22T08:35:20.349Z,2648
2018-11-22T08:36:20.236Z,2608
2018-11-22T08:37:19.987Z,2688
2018-11-22T08:38:20.230Z,2952
2018-11-22T08:39:20.224Z,3084
2018-11-22T08:40:20.274Z,3120
2018-11-22T08:41:20.269Z,3224
2018-11-22T08:42:19.980Z,3412
2018-11-22T08:43:20.229Z,3704
2018-11-22T08:44:20.218Z,3804
2018-11-22T08:45:20.261Z,3988
2018-11-22T08:46:20.211Z,4040
2018-11-22T08:47:19.715Z,4180
2018-11-22T08:48:20.216Z,3896
2018-11-22T08:49:20.214Z,3604
2018-11-22T08:50:19.959Z,3900
2018-11-22T08:51:20.205Z,4624
2018-11-22T08:52:20.210Z,4788
2018-11-22T08:53:20.203Z,4604
2018-11-22T08:54:20.220Z,4476
2018-11-22T08:55:21.192Z,4656
2018-11-22T08:56:20.193Z,4680
2018-11-22T08:57:20.201Z,4620
2018-11-22T08:58:20.183Z,4584
2018-11-22T08:59:20.180Z,4824
2018-11-22T09:00:20.098Z,5036
2018-11-22T09:01:19.936Z,5020
2018-11-22T09:02:20.194Z,4896
2018-11-22T09:03:20.182Z,4760
2018-11-22T09:04:20.181Z,4628
2018-11-22T09:05:20.194Z,4600
2018-11-22T09:06:20.186Z,4636
2018-11-22T09:07:20.176Z,4760
2018-11-22T09:08:19.937Z,4884
2018-11-22T09:09:20.226Z,4976
2018-11-22T09:10:19.930Z,5148
2018-11-22T09:11:20.171Z,5292
2018-11-22T09:12:20.165Z,5360
2018-11-22T09:13:20.175Z,5416
2018-11-22T09:14:19.927Z,5668
2018-11-22T09:15:20.257Z,5792
2018-11-22T09:16:20.167Z,5808
2018-11-22T09:17:19.918Z,6260
2018-11-22T09:18:20.165Z,6832
2018-11-22T09:19:20.157Z,6944
2018-11-22T09:20:20.181Z,6824
2018-11-22T09:21:19.919Z,6728
2018-11-22T09:22:20.162Z,6992
2018-11-22T09:23:20.180Z,7084
2018-11-22T09:24:26.581Z,7036
2018-11-22T09:25:20.157Z,6868
2018-11-22T09:26:20.157Z,6544
2018-11-22T09:27:19.912Z,6292
2018-11-22T09:28:20.158Z,6264
2018-11-22T09:29:20.148Z,6340
2018-11-22T09:30:19.972Z,6440
2018-11-22T09:31:20.154Z,6960
2018-11-22T09:32:19.902Z,7556
2018-11-22T09:33:20.168Z,7772
2018-11-22T09:34:20.201Z,7828
2018-11-22T09:35:20.329Z,7848
2018-11-22T09:36:20.142Z,7568
2018-11-22T09:37:20.143Z,7408
2018-11-22T09:38:20.146Z,7536
2018-11-22T09:39:20.148Z,7176
2018-11-22T09:40:20.143Z,6944
2018-11-22T09:41:19.897Z,7192
2018-11-22T09:42:20.690Z,7568
2018-11-22T09:43:19.879Z,8168
2018-11-22T09:44:19.884Z,9960
2018-11-22T09:45:20.187Z,12324
2018-11-22T09:46:20.147Z,13456
2018-11-22T09:47:20.125Z,13324
2018-11-22T09:48:20.162Z,11944
2018-11-22T09:49:20.127Z,10276
2018-11-22T09:50:19.943Z,9708
2018-11-22T09:51:20.126Z,9428
2018-11-22T09:52:20.132Z,9348
2018-11-22T09:53:20.133Z,10536
2018-11-22T09:54:20.130Z,13116
2018-11-22T09:55:19.893Z,16288
2018-11-22T09:56:20.124Z,13052
2018-11-22T09:57:20.138Z,12840
2018-11-22T09:58:19.892Z,14108
2018-11-22T09:59:20.597Z,14656
2018-11-22T10:00:20.157Z,15368
2018-11-22T10:01:20.145Z,14496
2018-11-22T10:02:20.141Z,14056
2018-11-22T10:03:20.628Z,13368
2018-11-22T10:04:20.146Z,13252
2018-11-22T10:05:21.417Z,17792
2018-11-22T10:06:20.147Z,15212
2018-11-22T10:07:19.907Z,19072
2018-11-22T10:08:20.165Z,19744
2018-11-22T10:09:20.380Z,26112
2018-11-22T10:10:20.199Z,22848
2018-11-22T10:11:20.152Z,29248
2018-11-22T10:12:20.309Z,16124
2018-11-22T10:13:20.151Z,15664
2018-11-22T10:14:20.150Z,15272
2018-11-22T10:15:19.914Z,19680
2018-11-22T10:16:20.157Z,21280
2018-11-22T10:17:20.281Z,24160
2018-11-22T10:18:20.171Z,18816
2018-11-22T10:19:20.169Z,21760
2018-11-22T10:20:19.734Z,19808
2018-11-22T10:21:19.935Z,16960
2018-11-22T10:22:20.209Z,20288
2018-11-22T10:23:19.933Z,18368
2018-11-22T10:24:20.376Z,17280
2018-11-22T10:25:19.934Z,17856
2018-11-22T10:26:20.175Z,17824
2018-11-22T10:27:20.183Z,22528
2018-11-22T10:28:19.942Z,44064
2018-11-22T10:29:19.904Z,21856
2018-11-22T10:30:20.355Z,20640
2018-11-22T10:31:19.953Z,15688
2018-11-22T10:32:20.209Z,18752
2018-11-22T10:33:20.202Z,18272
2018-11-22T10:34:20.205Z,36288
2018-11-22T10:35:20.647Z,49760
2018-11-22T10:36:20.239Z,51328
2018-11-22T10:37:20.216Z,53920
2018-11-22T10:38:20.641Z,51168
2018-11-22T10:40:20.276Z,53664
2018-11-22T10:41:20.240Z,50880
2018-11-22T10:42:20.404Z,42720
2018-11-22T10:43:20.246Z,39456
2018-11-22T10:44:20.262Z,40736
2018-11-22T10:45:20.010Z,41440
2018-11-22T10:46:20.260Z,40896
2018-11-22T10:47:20.265Z,31168
2018-11-22T10:48:20.044Z,29888
2018-11-22T10:49:20.284Z,33312
2018-11-22T10:50:20.332Z,36992
2018-11-22T10:51:20.303Z,38912
2018-11-22T10:52:20.295Z,30976
2018-11-22T10:53:20.301Z,26976
2018-11-22T10:54:20.311Z,21920
2018-11-22T10:55:21.233Z,27520
2018-11-22T10:56:20.328Z,28800
2018-11-22T10:57:20.344Z,30624
2018-11-22T10:58:20.110Z,34592
2018-11-22T10:59:20.107Z,36576
2018-11-22T11:00:20.361Z,36480
2018-11-22T11:01:20.363Z,36448
2018-11-22T11:02:20.814Z,33664
2018-11-22T11:03:20.182Z,33056
2018-11-22T11:04:20.139Z,34688
2018-11-22T11:05:20.446Z,31072
2018-11-22T11:06:20.414Z,30528
2018-11-22T11:07:20.412Z,33440
2018-11-22T11:08:20.405Z,41472
2018-11-22T11:09:20.170Z,41856
2018-11-22T11:10:20.185Z,40672
2018-11-22T11:11:20.446Z,41984
2018-11-22T11:12:25.417Z,38592
2018-11-22T11:13:20.215Z,35616
2018-11-22T11:14:20.453Z,47680
2018-11-22T11:15:20.330Z,65920
2018-11-22T11:16:20.474Z,62240
2018-11-22T11:17:20.487Z,62080
2018-11-22T11:18:20.502Z,60032
2018-11-22T11:19:20.500Z,61856
2018-11-22T11:20:20.311Z,63648
2018-11-22T11:21:20.530Z,66240
2018-11-22T11:22:20.295Z,66080
2018-11-22T11:23:20.291Z,63584
2018-11-22T11:24:20.553Z,60928
2018-11-22T11:25:20.577Z,59648
2018-11-22T11:26:20.591Z,60576
2018-11-22T11:27:20.356Z,60448
2018-11-22T11:28:20.580Z,59072
2018-11-22T11:29:20.595Z,57760
2018-11-22T11:30:20.357Z,59296
2018-11-22T11:31:20.622Z,61728
2018-11-22T11:32:20.392Z,61952
2018-11-22T11:33:20.632Z,62144
2018-11-22T11:34:20.659Z,61632
2018-11-22T11:35:20.709Z,62912
2018-11-22T11:36:25.026Z,68800
2018-11-22T11:37:20.682Z,70592
2018-11-22T11:38:20.446Z,70304
2018-11-22T11:39:20.702Z,63392
2018-11-22T11:40:20.768Z,60160
2018-11-22T11:41:20.732Z,60864
2018-11-22T11:42:20.751Z,64992
2018-11-22T11:43:20.755Z,65376
2018-11-22T11:44:20.760Z,65568
2018-11-22T11:45:20.774Z,70624
2018-11-22T11:46:20.785Z,74656
2018-11-22T11:47:20.578Z,74368
2018-11-22T11:48:20.810Z,71616
2018-11-22T11:49:20.824Z,66400
2018-11-22T11:50:20.895Z,65088
2018-11-22T11:51:20.850Z,67264
2018-11-22T11:52:20.868Z,72704
2018-11-22T11:53:27.075Z,82432
2018-11-22T11:54:20.908Z,101120
2018-11-22T11:55:20.716Z,113696
2018-11-22T11:56:20.919Z,92032
2018-11-22T11:57:20.936Z,58368
2018-11-22T11:58:20.955Z,38048
2018-11-22T11:59:20.959Z,33440
2018-11-22T12:00:20.977Z,32672
2018-11-22T12:01:20.995Z,31680
2018-11-22T12:02:22.498Z,31904
2018-11-22T12:03:20.774Z,33600
2018-11-22T12:04:20.793Z,34176
2018-11-22T12:05:20.802Z,32512
2018-11-22T12:06:21.108Z,31040
2018-11-22T12:07:21.076Z,29856
2018-11-22T12:08:21.086Z,31040
2018-11-22T12:09:21.099Z,32992
2018-11-22T12:10:21.174Z,34272
2018-11-22T12:11:21.140Z,35456
2018-11-22T12:12:21.142Z,37408
2018-11-22T12:13:21.167Z,39104
2018-11-22T12:14:21.171Z,40448
2018-11-22T12:15:21.191Z,42304
2018-11-22T12:16:21.200Z,45024
2018-11-22T12:17:20.979Z,47424
2018-11-22T12:18:21.229Z,48448
2018-11-22T12:19:21.244Z,48096
2018-11-22T12:20:21.266Z,49088
2018-11-22T12:21:21.026Z,53472
2018-11-22T12:22:21.285Z,57152
2018-11-22T12:23:21.308Z,57824
2018-11-22T12:24:21.076Z,59712
2018-11-22T12:25:21.225Z,59904
2018-11-22T12:26:21.353Z,59456
2018-11-22T12:27:21.395Z,60320
2018-11-22T12:28:21.165Z,60096
2018-11-22T12:29:21.255Z,63232
2018-11-22T12:30:21.177Z,62240
2018-11-22T12:31:21.434Z,58240
2018-11-22T12:32:21.204Z,56608
2018-11-22T12:33:21.469Z,54784
2018-11-22T12:34:21.242Z,60320
2018-11-22T12:35:21.247Z,66944
2018-11-22T12:36:21.612Z,71776
2018-11-22T12:37:21.537Z,72992
2018-11-22T12:38:21.544Z,72736
2018-11-22T12:39:21.563Z,62240
2018-11-22T12:40:21.377Z,65504
2018-11-22T12:41:21.592Z,70912
2018-11-22T12:42:21.600Z,68000
2018-11-22T12:43:21.613Z,70496
2018-11-22T12:44:21.635Z,69632
2018-11-22T12:45:21.695Z,59744
2018-11-22T12:46:21.672Z,43968
2018-11-22T12:47:21.681Z,56256
2018-11-22T12:48:21.707Z,45920
2018-11-22T12:49:21.723Z,29856
2018-11-22T12:50:21.720Z,29440
2018-11-22T12:51:21.737Z,29824
2018-11-22T12:52:21.753Z,30848
2018-11-22T12:53:21.774Z,27168
2018-11-22T12:54:21.787Z,36992
2018-11-22T12:55:21.550Z,32224
2018-11-22T12:56:21.810Z,34816
2018-11-22T12:57:21.829Z,42656
2018-11-22T12:58:21.841Z,61600
2018-11-22T12:59:21.912Z,64672
2018-11-22T13:00:21.908Z,77504
2018-11-22T13:01:21.886Z,65408
2018-11-22T13:02:25.693Z,51808
2018-11-22T13:03:21.892Z,53600
2018-11-22T13:04:21.906Z,71360
2018-11-22T13:05:21.923Z,70464
2018-11-22T13:06:21.688Z,69728
2018-11-22T13:07:21.946Z,50176
2018-11-22T13:08:21.985Z,72736
2018-11-22T13:09:22.882Z,76288
2018-11-22T13:10:21.999Z,75648
2018-11-22T13:11:21.759Z,75680
2018-11-22T13:12:22.005Z,76960
2018-11-22T13:13:22.029Z,75744
2018-11-22T13:14:22.033Z,74592
2018-11-22T13:15:22.112Z,75264
2018-11-22T13:16:22.075Z,64352
2018-11-22T13:17:22.091Z,60864
2018-11-22T13:18:21.853Z,72544
2018-11-22T13:19:21.875Z,72192
2018-11-22T13:20:22.165Z,72160
2018-11-22T13:21:21.895Z,70368
2018-11-22T13:22:22.145Z,69728
2018-11-22T13:23:21.913Z,68608
2018-11-22T13:24:21.932Z,63072
2018-11-22T13:25:22.236Z,48704
2018-11-22T13:26:22.201Z,31936
2018-11-22T13:27:22.215Z,17312
2018-11-22T13:28:22.223Z,10156
2018-11-22T13:29:22.242Z,9668
2018-11-22T13:30:22.013Z,9176
2018-11-22T13:31:22.268Z,9260
2018-11-22T13:32:28.506Z,9332
2018-11-22T13:33:22.298Z,9308
2018-11-22T13:34:22.303Z,9612
2018-11-22T13:35:22.309Z,10028
2018-11-22T13:36:22.329Z,10096
2018-11-22T13:37:22.094Z,9924
2018-11-22T13:38:22.103Z,9836
2018-11-22T13:39:22.364Z,9840
2018-11-22T13:40:22.456Z,9912
2018-11-22T13:41:23.314Z,10040
2018-11-22T13:42:22.401Z,10036
2018-11-22T13:43:22.407Z,9656
2018-11-22T13:44:22.171Z,8556
2018-11-22T13:45:22.233Z,7604
2018-11-22T13:46:22.429Z,7076
2018-11-22T13:47:22.445Z,6940
2018-11-22T13:48:22.199Z,7260
2018-11-22T13:49:22.461Z,7820
2018-11-22T13:50:22.470Z,8440
2018-11-22T13:51:22.232Z,9016
2018-11-22T13:52:22.487Z,9400
2018-11-22T13:53:27.419Z,9616
2018-11-22T13:54:22.501Z,9608
2018-11-22T13:55:22.952Z,9400
2018-11-22T13:56:22.266Z,9116
2018-11-22T13:57:22.519Z,8848
2018-11-22T13:58:22.282Z,8648
2018-11-22T13:59:22.574Z,8508
2018-11-22T14:00:22.592Z,8376
2018-11-22T14:01:22.549Z,8224
2018-11-22T14:02:22.549Z,8012
2018-11-22T14:03:22.560Z,7792
2018-11-22T14:04:22.073Z,7628
2018-11-22T14:05:22.908Z,7532
2018-11-22T14:06:22.342Z,7568
2018-11-22T14:07:22.580Z,7988
2018-11-22T14:08:22.589Z,8752
2018-11-22T14:09:22.598Z,9368
2018-11-22T14:10:22.649Z,9532
2018-11-22T14:11:22.612Z,9360
2018-11-22T14:12:22.618Z,9052
2018-11-22T14:13:22.381Z,8740
2018-11-22T14:14:22.601Z,8328
2018-11-22T14:15:22.795Z,7556
2018-11-22T14:16:22.613Z,6744
2018-11-22T14:17:22.615Z,6016
2018-11-22T14:18:22.620Z,5512
2018-11-22T14:19:22.622Z,5268
2018-11-22T14:20:22.652Z,5136